MSC Lirica — HOPW — position and weather

sailwx.info

Track history (hours):
 
Tides and Currents Weather Stations Pressure Air Temp Water Temp Dewpoint Dewpoint Depression Visibility Wind Speed Wind Dir Waves Ship Positions

MSC Lirica

Operator: Mediterranean Shipping Company

Last reported at 2018-Nov-05 16:58 UTC. Time now 2018-Dec-13 14:31 UTC.
Position N 37°29' E 023°48'.
Warning: this ship's position is 37 days out of date.

Length 275 m; draft 6.8 m.

Type: Ship. MMSI: 356042000.

Date/timePositionNaut miles runAvg speedWind from/ knotsBaromVisibWave heightAir tempDewpointWater temp
2018-Nov-05 16:58N 37°29' E 023°48'714.6
2018-Nov-05 16:30N 37°35' E 023°44'817.5
2018-Nov-05 16:04N 37°42' E 023°40'117.9
2018-Nov-05 16:00N 37°43' E 023°40'816.2
2018-Nov-05 15:30N 37°51' E 023°36'511.7
2018-Nov-05 15:03N 37°56' E 023°37'0 2.3
2018-Nov-05 15:00N 37°56' E 023°37'1 1.2
2018-Nov-05 14:30N 37°56' E 023°38'0 0.0
2018-Nov-05 14:03N 37°56' E 023°38'0 0.0
2018-Nov-05 13:30N 37°56' E 023°38'0 0.0
2018-Nov-05 13:02N 37°56' E 023°38'0 0.0
2018-Nov-05 12:59N 37°56' E 023°38'0 0.0
2018-Nov-05 12:29N 37°56' E 023°38'0 0.0
2018-Nov-05 12:02N 37°56' E 023°38'0 0.0
2018-Nov-05 11:59N 37°56' E 023°38'0 0.0
2018-Nov-05 11:29N 37°56' E 023°38'0 0.0
2018-Nov-05 11:02N 37°56' E 023°38'0 0.0
2018-Nov-05 10:59N 37°56' E 023°38'0 0.0
2018-Nov-05 10:28N 37°56' E 023°38'0 0.0
2018-Nov-05 10:01N 37°56' E 023°38'0 0.0
2018-Nov-05 09:58N 37°56' E 023°38'0 0.0
2018-Nov-05 09:28N 37°56' E 023°38'0 0.0
2018-Nov-05 09:01N 37°56' E 023°38'0 0.0
2018-Nov-05 08:58N 37°56' E 023°38'0 0.0
2018-Nov-05 08:30N 37°56' E 023°38'0 0.0
2018-Nov-05 08:03N 37°56' E 023°38'0 0.0
2018-Nov-05 08:00N 37°56' E 023°38'0 0.0
2018-Nov-05 07:30N 37°56' E 023°38'0 0.0
2018-Nov-05 07:03N 37°56' E 023°38'0 0.0
2018-Nov-05 07:00N 37°56' E 023°38'0 0.0
2018-Nov-05 06:30N 37°56' E 023°38'0 0.0
2018-Nov-05 06:02N 37°56' E 023°38'0 0.0
2018-Nov-05 05:59N 37°56' E 023°38'0 0.0
2018-Nov-05 05:29N 37°56' E 023°38'0 0.0
2018-Nov-05 05:02N 37°56' E 023°38'0 0.0
2018-Nov-05 04:59N 37°56' E 023°38'1 1.5
2018-Nov-05 04:30N 37°56' E 023°37'4 9.3
2018-Nov-05 04:03N 37°52' E 023°39'115.8
2018-Nov-05 04:00N 37°51' E 023°39'815.3
2018-Nov-05 03:30N 37°45' E 023°44'715.0
2018-Nov-05 03:03N 37°38' E 023°47'114.8
2018-Nov-05 03:00N 37°38' E 023°47'715.0
2018-Nov-05 02:31N 37°30' E 023°49'714.9
2018-Nov-05 02:00N 37°23' E 023°47'815.4
2018-Nov-05 01:29N 37°16' E 023°43'63812.3
2018-Nov-02 21:47N 44°16' E 013°11'720.5
2018-Nov-02 21:26N 44°24' E 013°08'820.3
2018-Nov-02 21:03N 44°31' E 013°05'120.2
2018-Nov-02 21:00N 44°32' E 013°05'1020.1
2018-Nov-02 20:30N 44°41' E 013°01'920.0
2018-Nov-02 20:03N 44°50' E 012°56'120.0
2018-Nov-02 20:00N 44°51' E 012°55'1019.9
2018-Nov-02 19:30N 44°59' E 012°48'919.4
2018-Nov-02 19:04N 45°06' E 012°41'119.4
2018-Nov-02 19:01N 45°07' E 012°39'918.5
2018-Nov-02 18:31N 45°13' E 012°31'817.9
2018-Nov-02 18:03N 45°21' E 012°30'116.4
2018-Nov-02 18:01N 45°22' E 012°30'510.6
2018-Nov-02 17:31N 45°26' E 012°24'2 5.2
2018-Nov-02 17:04N 45°26' E 012°21'0 6.0
2018-Nov-02 17:01N 45°26' E 012°21'2 3.0
2018-Nov-02 16:31N 45°26' E 012°19'0 0.0
2018-Nov-02 16:02N 45°26' E 012°19'0 0.0
2018-Nov-02 15:59N 45°26' E 012°19'0 0.0
2018-Nov-02 15:29N 45°26' E 012°19'0 0.0
2018-Nov-02 15:02N 45°26' E 012°19'0 0.0
2018-Nov-02 14:59N 45°26' E 012°19'0 0.0
2018-Nov-02 14:01N 45°26' E 012°19'0 0.0
2018-Nov-02 13:58N 45°26' E 012°19'0 0.0
2018-Nov-02 13:30N 45°26' E 012°19'0 0.0
2018-Nov-02 13:01N 45°26' E 012°19'0 0.0
2018-Nov-02 12:58N 45°26' E 012°19'0 0.0
2018-Nov-02 12:28N 45°26' E 012°19'0 0.0
2018-Nov-02 12:00N 45°26' E 012°19'0 0.0
2018-Nov-02 11:30N 45°26' E 012°19'0 0.0
2018-Nov-02 10:57N 45°26' E 012°19'0 0.0
2018-Nov-02 10:24N 45°26' E 012°19'0 0.0
2018-Nov-02 09:59N 45°26' E 012°19'0 0.0
2018-Nov-02 09:17N 45°26' E 012°19'0 0.0
2018-Nov-02 08:59N 45°26' E 012°19'0 0.0
2018-Nov-02 08:05N 45°26' E 012°19'0 0.0
2018-Nov-02 08:02N 45°26' E 012°19'0 0.0
2018-Nov-02 07:59N 45°26' E 012°19'0 0.0
2018-Nov-02 07:28N 45°26' E 012°19'0 0.0
2018-Nov-02 07:01N 45°26' E 012°19'0 0.0
2018-Nov-02 06:58N 45°26' E 012°19'0 0.0
2018-Nov-02 06:28N 45°26' E 012°19'0 0.9
2018-Nov-02 06:04N 45°26' E 012°19'0 5.3
2018-Nov-02 06:01N 45°26' E 012°19'2 4.9
2018-Nov-02 05:31N 45°26' E 012°23'3 7.4
2018-Nov-02 05:04N 45°25' E 012°27'110.0
2018-Nov-02 05:01N 45°24' E 012°28'511.0
2018-Nov-02 04:31N 45°20' E 012°31'714.7
2018-Nov-02 04:04N 45°14' E 012°37'115.4
2018-Nov-02 04:01N 45°14' E 012°38'815.7
2018-Nov-02 03:31N 45°09' E 012°47'716.2
2018-Nov-02 03:04N 45°05' E 012°56'116.9
2018-Nov-02 03:01N 45°05' E 012°57'918.0
2018-Nov-02 02:30N 45°01' E 013°09'818.0
2018-Nov-02 02:03N 44°58' E 013°19'118.2
2018-Nov-02 02:01N 44°57' E 013°20'918.1
2018-Nov-02 01:30N 44°50' E 013°28'818.2
2018-Nov-02 01:04N 44°43' E 013°34'117.9
2018-Nov-02 01:01N 44°42' E 013°35'117.9
2018-Nov-02 00:56N 44°41' E 013°36'617.9
2018-Nov-02 00:35N 44°36' E 013°40'117.8
2018-Nov-02 00:31N 44°35' E 013°41'817.9
2018-Nov-02 00:03N 44°28' E 013°47'118.0
2018-Nov-02 00:01N 44°27' E 013°48'918.3
2018-Nov-01 23:30N 44°19' E 013°55'818.4
2018-Nov-01 23:04N 44°13' E 014°02'118.8
2018-Nov-01 23:01N 44°12' E 014°03'  
2018-Oct-29 21:25N 37°05' E 024°58'718.4
2018-Oct-29 21:04N 37°11' E 025°01'118.0
2018-Oct-29 21:01N 37°12' E 025°01'917.7
2018-Oct-29 20:30N 37°20' E 025°06'817.4
2018-Oct-29 20:03N 37°27' E 025°11'117.3
2018-Oct-29 20:01N 37°27' E 025°12'611.4
2018-Oct-29 19:29N 37°28' E 025°19'0 0.1
2018-Oct-29 18:59N 37°28' E 025°19'0 0.0
2018-Oct-29 18:29N 37°28' E 025°19'0 0.0
2018-Oct-29 18:01N 37°28' E 025°19'0 0.0
2018-Oct-29 17:58N 37°28' E 025°19'0 0.0
2018-Oct-29 17:28N 37°28' E 025°19'0 0.0
2018-Oct-29 17:01N 37°28' E 025°19'0 0.0
2018-Oct-29 16:58N 37°28' E 025°19'0 0.0
2018-Oct-29 16:28N 37°28' E 025°19'0 0.0
2018-Oct-29 16:01N 37°28' E 025°19'0 0.0
2018-Oct-29 15:58N 37°28' E 025°19'0 0.0
2018-Oct-29 15:30N 37°28' E 025°19'0 0.0
2018-Oct-29 15:03N 37°28' E 025°19'0 0.0
2018-Oct-29 15:00N 37°28' E 025°19'0 0.0
2018-Oct-29 14:30N 37°28' E 025°19'0 0.0
2018-Oct-29 14:00N 37°28' E 025°19'0 0.0
2018-Oct-29 13:29N 37°28' E 025°19'0 0.0
2018-Oct-29 13:02N 37°28' E 025°19'0 0.0
2018-Oct-29 12:59N 37°28' E 025°19'0 0.0
2018-Oct-29 12:29N 37°28' E 025°19'0 0.0
2018-Oct-29 12:02N 37°28' E 025°19'0 0.0
2018-Oct-29 11:59N 37°28' E 025°19'0 0.0
2018-Oct-29 11:29N 37°28' E 025°19'0 0.0
2018-Oct-29 11:01N 37°28' E 025°19'0 0.0
2018-Oct-29 10:58N 37°28' E 025°19'0 0.0
2018-Oct-29 10:28N 37°28' E 025°19'0 0.0
2018-Oct-29 10:01N 37°28' E 025°19'0 0.0
2018-Oct-29 09:58N 37°28' E 025°19'0 0.0
2018-Oct-29 09:28N 37°28' E 025°19'0 0.0
2018-Oct-29 09:01N 37°28' E 025°19'0 0.0
2018-Oct-29 08:58N 37°28' E 025°19'0 0.0
2018-Oct-29 08:30N 37°28' E 025°19'0 0.0
2018-Oct-29 08:03N 37°28' E 025°19'0 0.0
2018-Oct-29 08:00N 37°28' E 025°19'0 0.0
2018-Oct-29 07:30N 37°28' E 025°19'0 0.0
2018-Oct-29 07:03N 37°28' E 025°19'0 0.0
2018-Oct-29 07:00N 37°28' E 025°19'0 0.0
2018-Oct-29 06:29N 37°28' E 025°19'0 0.0
2018-Oct-29 06:02N 37°28' E 025°19'0 0.0
2018-Oct-29 05:59N 37°28' E 025°19'0 0.0
2018-Oct-29 05:29N 37°28' E 025°19'0 0.0
2018-Oct-29 05:02N 37°28' E 025°19'0 0.0
2018-Oct-29 04:59N 37°28' E 025°19'1 1.7
2018-Oct-29 04:30N 37°28' E 025°18'510.1
2018-Oct-29 04:03N 37°28' E 025°13'111.9
2018-Oct-29 04:00N 37°27' E 025°12'611.9
2018-Oct-29 03:30N 37°23' E 025°07'512.0
2018-Oct-29 03:03N 37°19' E 025°02'112.2
2018-Oct-29 03:00N 37°19' E 025°02'612.1
2018-Oct-29 02:30N 37°15' E 024°56'612.6
2018-Oct-29 02:03N 37°12' E 024°50'58612.0
2018-Oct-27 01:24N 43°14' E 014°47'2420.1
2018-Oct-27 00:13N 43°31' E 014°24'519.9
2018-Oct-26 23:57N 43°34' E 014°18'1020.1
2018-Oct-26 23:26N 43°41' E 014°07'820.3
2018-Oct-26 23:03N 43°46' E 013°60'120.4
2018-Oct-26 23:00N 43°47' E 013°59'3920.0
2018-Oct-26 21:02N 44°11' E 013°15'319.6
2018-Oct-26 20:52N 44°13' E 013°12'919.7
2018-Oct-26 20:24N 44°22' E 013°07'719.7
2018-Oct-26 20:03N 44°28' E 013°04'119.5
2018-Oct-26 20:00N 44°29' E 013°04'1019.2
2018-Oct-26 19:30N 44°39' E 013°01'919.2
2018-Oct-26 19:03N 44°47' E 012°56'119.5
2018-Oct-26 19:00N 44°47' E 012°55'1019.6
2018-Oct-26 18:30N 44°56' E 012°49'919.8
2018-Oct-26 18:03N 45°04' E 012°44'119.7
2018-Oct-26 18:00N 45°05' E 012°43'1019.2
2018-Oct-26 17:30N 45°11' E 012°32'918.9
2018-Oct-26 17:03N 45°19' E 012°30'119.1
2018-Oct-26 17:00N 45°20' E 012°30'  
Track history (hours):
 
Tides and Currents Weather Stations Pressure Air Temp Water Temp Dewpoint Dewpoint Depression Visibility Wind Speed Wind Dir Waves Ship Positions

MSC Lirica

Operator: Mediterranean Shipping Company

Last reported at 2018-Nov-05 16:58 UTC. Time now 2018-Dec-13 14:31 UTC.
Position N 37°29' E 023°48'.
Warning: this ship's position is 37 days out of date.

Length 275 m; draft 6.8 m.

Type: Ship. MMSI: 356042000.

Date/timePositionNaut miles runAvg speedWind from/ knotsBaromVisibWave heightAir tempDewpointWater temp
2018-Nov-05 16:58N 37°29' E 023°48'714.6
2018-Nov-05 16:30N 37°35' E 023°44'817.5
2018-Nov-05 16:04N 37°42' E 023°40'117.9
2018-Nov-05 16:00N 37°43' E 023°40'816.2
2018-Nov-05 15:30N 37°51' E 023°36'511.7
2018-Nov-05 15:03N 37°56' E 023°37'0 2.3
2018-Nov-05 15:00N 37°56' E 023°37'1 1.2
2018-Nov-05 14:30N 37°56' E 023°38'0 0.0
2018-Nov-05 14:03N 37°56' E 023°38'0 0.0
2018-Nov-05 13:30N 37°56' E 023°38'0 0.0
2018-Nov-05 13:02N 37°56' E 023°38'0 0.0
2018-Nov-05 12:59N 37°56' E 023°38'0 0.0
2018-Nov-05 12:29N 37°56' E 023°38'0 0.0
2018-Nov-05 12:02N 37°56' E 023°38'0 0.0
2018-Nov-05 11:59N 37°56' E 023°38'0 0.0
2018-Nov-05 11:29N 37°56' E 023°38'0 0.0
2018-Nov-05 11:02N 37°56' E 023°38'0 0.0
2018-Nov-05 10:59N 37°56' E 023°38'0 0.0
2018-Nov-05 10:28N 37°56' E 023°38'0 0.0
2018-Nov-05 10:01N 37°56' E 023°38'0 0.0
2018-Nov-05 09:58N 37°56' E 023°38'0 0.0
2018-Nov-05 09:28N 37°56' E 023°38'0 0.0
2018-Nov-05 09:01N 37°56' E 023°38'0 0.0
2018-Nov-05 08:58N 37°56' E 023°38'0 0.0
2018-Nov-05 08:30N 37°56' E 023°38'0 0.0
2018-Nov-05 08:03N 37°56' E 023°38'0 0.0
2018-Nov-05 08:00N 37°56' E 023°38'0 0.0
2018-Nov-05 07:30N 37°56' E 023°38'0 0.0
2018-Nov-05 07:03N 37°56' E 023°38'0 0.0
2018-Nov-05 07:00N 37°56' E 023°38'0 0.0
2018-Nov-05 06:30N 37°56' E 023°38'0 0.0
2018-Nov-05 06:02N 37°56' E 023°38'0 0.0
2018-Nov-05 05:59N 37°56' E 023°38'0 0.0
2018-Nov-05 05:29N 37°56' E 023°38'0 0.0
2018-Nov-05 05:02N 37°56' E 023°38'0 0.0
2018-Nov-05 04:59N 37°56' E 023°38'1 1.5
2018-Nov-05 04:30N 37°56' E 023°37'4 9.3
2018-Nov-05 04:03N 37°52' E 023°39'115.8
2018-Nov-05 04:00N 37°51' E 023°39'815.3
2018-Nov-05 03:30N 37°45' E 023°44'715.0
2018-Nov-05 03:03N 37°38' E 023°47'114.8
2018-Nov-05 03:00N 37°38' E 023°47'715.0
2018-Nov-05 02:31N 37°30' E 023°49'714.9
2018-Nov-05 02:00N 37°23' E 023°47'815.4
2018-Nov-05 01:29N 37°16' E 023°43'63812.3
2018-Nov-02 21:47N 44°16' E 013°11'720.5
2018-Nov-02 21:26N 44°24' E 013°08'820.3
2018-Nov-02 21:03N 44°31' E 013°05'120.2
2018-Nov-02 21:00N 44°32' E 013°05'1020.1
2018-Nov-02 20:30N 44°41' E 013°01'920.0
2018-Nov-02 20:03N 44°50' E 012°56'120.0
2018-Nov-02 20:00N 44°51' E 012°55'1019.9
2018-Nov-02 19:30N 44°59' E 012°48'919.4
2018-Nov-02 19:04N 45°06' E 012°41'119.4
2018-Nov-02 19:01N 45°07' E 012°39'918.5
2018-Nov-02 18:31N 45°13' E 012°31'817.9
2018-Nov-02 18:03N 45°21' E 012°30'116.4
2018-Nov-02 18:01N 45°22' E 012°30'510.6
2018-Nov-02 17:31N 45°26' E 012°24'2 5.2
2018-Nov-02 17:04N 45°26' E 012°21'0 6.0
2018-Nov-02 17:01N 45°26' E 012°21'2 3.0
2018-Nov-02 16:31N 45°26' E 012°19'0 0.0
2018-Nov-02 16:02N 45°26' E 012°19'0 0.0
2018-Nov-02 15:59N 45°26' E 012°19'0 0.0
2018-Nov-02 15:29N 45°26' E 012°19'0 0.0
2018-Nov-02 15:02N 45°26' E 012°19'0 0.0
2018-Nov-02 14:59N 45°26' E 012°19'0 0.0
2018-Nov-02 14:01N 45°26' E 012°19'0 0.0
2018-Nov-02 13:58N 45°26' E 012°19'0 0.0
2018-Nov-02 13:30N 45°26' E 012°19'0 0.0
2018-Nov-02 13:01N 45°26' E 012°19'0 0.0
2018-Nov-02 12:58N 45°26' E 012°19'0 0.0
2018-Nov-02 12:28N 45°26' E 012°19'0 0.0
2018-Nov-02 12:00N 45°26' E 012°19'0 0.0
2018-Nov-02 11:30N 45°26' E 012°19'0 0.0
2018-Nov-02 10:57N 45°26' E 012°19'0 0.0
2018-Nov-02 10:24N 45°26' E 012°19'0 0.0
2018-Nov-02 09:59N 45°26' E 012°19'0 0.0
2018-Nov-02 09:17N 45°26' E 012°19'0 0.0
2018-Nov-02 08:59N 45°26' E 012°19'0 0.0
2018-Nov-02 08:05N 45°26' E 012°19'0 0.0
2018-Nov-02 08:02N 45°26' E 012°19'0 0.0
2018-Nov-02 07:59N 45°26' E 012°19'0 0.0
2018-Nov-02 07:28N 45°26' E 012°19'0 0.0
2018-Nov-02 07:01N 45°26' E 012°19'0 0.0
2018-Nov-02 06:58N 45°26' E 012°19'0 0.0
2018-Nov-02 06:28N 45°26' E 012°19'0 0.9
2018-Nov-02 06:04N 45°26' E 012°19'0 5.3
2018-Nov-02 06:01N 45°26' E 012°19'2 4.9
2018-Nov-02 05:31N 45°26' E 012°23'3 7.4
2018-Nov-02 05:04N 45°25' E 012°27'110.0
2018-Nov-02 05:01N 45°24' E 012°28'511.0
2018-Nov-02 04:31N 45°20' E 012°31'714.7
2018-Nov-02 04:04N 45°14' E 012°37'115.4
2018-Nov-02 04:01N 45°14' E 012°38'815.7
2018-Nov-02 03:31N 45°09' E 012°47'716.2
2018-Nov-02 03:04N 45°05' E 012°56'116.9
2018-Nov-02 03:01N 45°05' E 012°57'918.0
2018-Nov-02 02:30N 45°01' E 013°09'818.0
2018-Nov-02 02:03N 44°58' E 013°19'118.2
2018-Nov-02 02:01N 44°57' E 013°20'918.1
2018-Nov-02 01:30N 44°50' E 013°28'818.2
2018-Nov-02 01:04N 44°43' E 013°34'117.9
2018-Nov-02 01:01N 44°42' E 013°35'117.9
2018-Nov-02 00:56N 44°41' E 013°36'617.9
2018-Nov-02 00:35N 44°36' E 013°40'117.8
2018-Nov-02 00:31N 44°35' E 013°41'817.9
2018-Nov-02 00:03N 44°28' E 013°47'118.0
2018-Nov-02 00:01N 44°27' E 013°48'918.3
2018-Nov-01 23:30N 44°19' E 013°55'818.4
2018-Nov-01 23:04N 44°13' E 014°02'118.8
2018-Nov-01 23:01N 44°12' E 014°03'  
2018-Oct-29 21:25N 37°05' E 024°58'718.4
2018-Oct-29 21:04N 37°11' E 025°01'118.0
2018-Oct-29 21:01N 37°12' E 025°01'917.7
2018-Oct-29 20:30N 37°20' E 025°06'817.4
2018-Oct-29 20:03N 37°27' E 025°11'117.3
2018-Oct-29 20:01N 37°27' E 025°12'611.4
2018-Oct-29 19:29N 37°28' E 025°19'0 0.1
2018-Oct-29 18:59N 37°28' E 025°19'0 0.0
2018-Oct-29 18:29N 37°28' E 025°19'0 0.0
2018-Oct-29 18:01N 37°28' E 025°19'0 0.0
2018-Oct-29 17:58N 37°28' E 025°19'0 0.0
2018-Oct-29 17:28N 37°28' E 025°19'0 0.0
2018-Oct-29 17:01N 37°28' E 025°19'0 0.0
2018-Oct-29 16:58N 37°28' E 025°19'0 0.0
2018-Oct-29 16:28N 37°28' E 025°19'0 0.0
2018-Oct-29 16:01N 37°28' E 025°19'0 0.0
2018-Oct-29 15:58N 37°28' E 025°19'0 0.0
2018-Oct-29 15:30N 37°28' E 025°19'0 0.0
2018-Oct-29 15:03N 37°28' E 025°19'0 0.0
2018-Oct-29 15:00N 37°28' E 025°19'0 0.0
2018-Oct-29 14:30N 37°28' E 025°19'0 0.0
2018-Oct-29 14:00N 37°28' E 025°19'0 0.0
2018-Oct-29 13:29N 37°28' E 025°19'0 0.0
2018-Oct-29 13:02N 37°28' E 025°19'0 0.0
2018-Oct-29 12:59N 37°28' E 025°19'0 0.0
2018-Oct-29 12:29N 37°28' E 025°19'0 0.0
2018-Oct-29 12:02N 37°28' E 025°19'0 0.0
2018-Oct-29 11:59N 37°28' E 025°19'0 0.0
2018-Oct-29 11:29N 37°28' E 025°19'0 0.0
2018-Oct-29 11:01N 37°28' E 025°19'0 0.0
2018-Oct-29 10:58N 37°28' E 025°19'0 0.0
2018-Oct-29 10:28N 37°28' E 025°19'0 0.0
2018-Oct-29 10:01N 37°28' E 025°19'0 0.0
2018-Oct-29 09:58N 37°28' E 025°19'0 0.0
2018-Oct-29 09:28N 37°28' E 025°19'0 0.0
2018-Oct-29 09:01N 37°28' E 025°19'0 0.0
2018-Oct-29 08:58N 37°28' E 025°19'0 0.0
2018-Oct-29 08:30N 37°28' E 025°19'0 0.0
2018-Oct-29 08:03N 37°28' E 025°19'0 0.0
2018-Oct-29 08:00N 37°28' E 025°19'0 0.0
2018-Oct-29 07:30N 37°28' E 025°19'0 0.0
2018-Oct-29 07:03N 37°28' E 025°19'0 0.0
2018-Oct-29 07:00N 37°28' E 025°19'0 0.0
2018-Oct-29 06:29N 37°28' E 025°19'0 0.0
2018-Oct-29 06:02N 37°28' E 025°19'0 0.0
2018-Oct-29 05:59N 37°28' E 025°19'0 0.0
2018-Oct-29 05:29N 37°28' E 025°19'0 0.0
2018-Oct-29 05:02N 37°28' E 025°19'0 0.0
2018-Oct-29 04:59N 37°28' E 025°19'1 1.7
2018-Oct-29 04:30N 37°28' E 025°18'510.1
2018-Oct-29 04:03N 37°28' E 025°13'111.9
2018-Oct-29 04:00N 37°27' E 025°12'611.9
2018-Oct-29 03:30N 37°23' E 025°07'512.0
2018-Oct-29 03:03N 37°19' E 025°02'112.2
2018-Oct-29 03:00N 37°19' E 025°02'612.1
2018-Oct-29 02:30N 37°15' E 024°56'612.6
2018-Oct-29 02:03N 37°12' E 024°50'58612.0
2018-Oct-27 01:24N 43°14' E 014°47'2420.1
2018-Oct-27 00:13N 43°31' E 014°24'519.9
2018-Oct-26 23:57N 43°34' E 014°18'1020.1
2018-Oct-26 23:26N 43°41' E 014°07'820.3
2018-Oct-26 23:03N 43°46' E 013°60'120.4
2018-Oct-26 23:00N 43°47' E 013°59'3920.0
2018-Oct-26 21:02N 44°11' E 013°15'319.6
2018-Oct-26 20:52N 44°13' E 013°12'919.7
2018-Oct-26 20:24N 44°22' E 013°07'719.7
2018-Oct-26 20:03N 44°28' E 013°04'119.5
2018-Oct-26 20:00N 44°29' E 013°04'1019.2
2018-Oct-26 19:30N 44°39' E 013°01'919.2
2018-Oct-26 19:03N 44°47' E 012°56'119.5
2018-Oct-26 19:00N 44°47' E 012°55'1019.6
2018-Oct-26 18:30N 44°56' E 012°49'919.8
2018-Oct-26 18:03N 45°04' E 012°44'119.7
2018-Oct-26 18:00N 45°05' E 012°43'1019.2
2018-Oct-26 17:30N 45°11' E 012°32'918.9
2018-Oct-26 17:03N 45°19' E 012°30'119.1
2018-Oct-26 17:00N 45°20' E 012°30'  

Dump ship's entire track history